This is the latest recevied weather packets stored in our database for station/object IW4EMA-3. If no packets are shown the sender has not sent any weather packets the latest 10 day(s).
| Time | Temp. | Humidity | Pressure | Rain* | Wind** | Luminosity | Snow |
|---|---|---|---|---|---|---|---|
| 1777674085 | 12.78° C | 55% | 1026 hPa | 0 mm | - | 0 W/m² | - |
| 1777672906 | 12.78° C | 51% | 1025.9 hPa | 0 mm | - | 0 W/m² | - |
| 1777671091 | 12.78° C | 50% | 1025.8 hPa | - | - | 0 W/m² | - |
| 1777665685 | 15° C | 46% | 1025.3 hPa | - | - | 0 W/m² | - |
| 1777665092 | 15° C | 44% | 1025.3 hPa | - | - | 0 W/m² | - |
| 1777663892 | 15° C | 47% | 1025.2 hPa | - | - | 0 W/m² | - |
| 1777651892 | 20° C | 29% | 1024.5 hPa | - | - | 38 W/m² | - |
| 1777648884 | 20° C | 30% | 1025.1 hPa | - | - | 261 W/m² | - |
| 1777639877 | 18.89° C | 28% | 1026.3 hPa | - | - | 593 W/m² | - |
| 1777638696 | 18.89° C | 28% | 1026.7 hPa | - | - | 620 W/m² | - |
| 1777636884 | 18.89° C | 28% | 1026.8 hPa | - | - | 652 W/m² | - |
| 1777635684 | 18.33° C | 29% | 1026.9 hPa | - | - | 667 W/m² | - |
| 1777635076 | 18.33° C | 29% | 1026.9 hPa | - | - | 672 W/m² | - |
| 1777625477 | 17.78° C | 32% | 1027.5 hPa | - | - | 556 W/m² | - |
| 1777624885 | 17.22° C | 32% | 1027.5 hPa | - | - | 537 W/m² | - |
| 1777621304 | 15.56° C | 49% | 1027.6 hPa | - | - | 402 W/m² | - |
| 1777615285 | 12.22° C | 67% | 1027.1 hPa | - | - | 162 W/m² | - |
| 1777609284 | 7.78° C | 77% | 1026.1 hPa | - | - | 11 W/m² | - |
| 1777608085 | 7.78° C | 78% | 1026.1 hPa | - | - | 2 W/m² | - |
| 1777607477 | 7.22° C | 81% | 1025.8 hPa | - | - | 1 W/m² | - |
| 1777604486 | 8.33° C | 73% | 1026 hPa | - | - | 0 W/m² | - |
| 1777597897 | 8.33° C | 78% | 1026 hPa | - | - | 0 W/m² | - |
| 1777593077 | 8.33° C | 78% | 1026.2 hPa | 0 mm | - | 0 W/m² | - |
| 1777591877 | 9.44° C | 74% | 1026.1 hPa | 0 mm | - | 0 W/m² | - |
| 1777589364 | 10° C | 73% | 1026.1 hPa | 0 mm | - | 0 W/m² | - |
* Rain latest hour (hover to see other rain measurements)
** Current wind speed in m/s (hover to see current wind gust speed)